createdAt,value
2023-04-13T00:01:07.844Z,0.30
2023-04-13T00:03:36.228Z,0.17
2023-04-13T00:06:03.314Z,0.30
2023-04-13T00:08:30.770Z,0.40
2023-04-13T00:10:57.472Z,0.30
2023-04-13T00:13:26.844Z,0.50
2023-04-13T00:15:53.809Z,0.30
2023-04-13T00:18:20.793Z,0.40
2023-04-13T00:20:47.337Z,0.32
2023-04-13T00:23:13.838Z,0.32
2023-04-13T00:25:40.343Z,0.40
2023-04-13T00:28:06.908Z,0.45
2023-04-13T00:30:33.518Z,0.47
2023-04-13T00:33:03.735Z,0.30
2023-04-13T00:35:30.461Z,0.40
2023-04-13T00:37:58.714Z,0.20
2023-04-13T00:40:25.508Z,0.30
2023-04-13T00:42:53.170Z,0.40
2023-04-13T00:45:19.783Z,0.30
2023-04-13T00:47:48.661Z,0.43
2023-04-13T00:50:18.743Z,0.50
2023-04-13T00:52:46.448Z,0.20
2023-04-13T00:55:12.938Z,0.30
2023-04-13T00:57:40.816Z,0.40
2023-04-13T01:00:12.811Z,0.30
2023-04-13T01:02:42.829Z,0.20
2023-04-13T01:05:12.570Z,0.30
2023-04-13T01:07:51.061Z,0.30
2023-04-13T01:10:49.390Z,0.30
2023-04-13T01:13:35.104Z,0.30
2023-04-13T01:16:08.839Z,0.30
2023-04-13T01:18:40.196Z,0.30
2023-04-13T01:21:13.123Z,0.40
2023-04-13T01:23:49.828Z,0.30
2023-04-13T01:26:17.219Z,0.47
2023-04-13T01:28:47.694Z,0.60
2023-04-13T01:31:17.145Z,0.40
2023-04-13T01:33:45.340Z,0.80
2023-04-13T01:36:13.008Z,0.50
2023-04-13T01:38:39.521Z,0.52
2023-04-13T01:41:08.728Z,0.40
2023-04-13T01:43:37.793Z,0.50
2023-04-13T01:46:13.951Z,0.80
2023-04-13T01:48:56.273Z,0.57
2023-04-13T01:51:35.498Z,1.20
2023-04-13T01:54:11.006Z,1.27
2023-04-13T01:56:40.111Z,0.70
2023-04-13T01:59:07.815Z,0.90
2023-04-13T02:01:41.065Z,0.90
2023-04-13T02:04:08.096Z,0.70
2023-04-13T02:06:37.177Z,0.80
2023-04-13T02:09:09.153Z,0.60
2023-04-13T02:11:36.702Z,0.70
2023-04-13T02:14:04.888Z,0.60
2023-04-13T02:16:32.190Z,0.80
2023-04-13T02:18:58.999Z,0.47
2023-04-13T02:21:26.002Z,0.60
2023-04-13T02:23:52.704Z,0.67
2023-04-13T02:26:21.531Z,0.68
2023-04-13T02:28:50.021Z,0.70
2023-04-13T02:31:17.564Z,0.70
2023-04-13T02:33:46.289Z,0.60
2023-04-13T02:36:13.266Z,0.80
2023-04-13T02:38:48.136Z,0.65
2023-04-13T02:41:24.955Z,0.75
2023-04-13T02:43:52.280Z,0.60
2023-04-13T02:46:22.057Z,0.40
2023-04-13T02:48:53.243Z,0.40
2023-04-13T02:51:19.872Z,0.40
2023-04-13T02:53:47.232Z,0.38
2023-04-13T02:56:14.324Z,0.50
2023-04-13T02:58:41.824Z,0.40
2023-04-13T03:01:16.855Z,0.70
2023-04-13T03:03:43.418Z,0.75
2023-04-13T03:06:10.255Z,0.70
2023-04-13T03:08:51.236Z,0.52
2023-04-13T03:11:23.507Z,0.85
2023-04-13T03:14:07.534Z,0.60
2023-04-13T03:16:34.571Z,1.00
2023-04-13T03:19:03.425Z,0.70
2023-04-13T03:21:30.396Z,0.90
2023-04-13T03:24:02.721Z,0.80
2023-04-13T03:26:30.460Z,1.30
2023-04-13T03:29:00.596Z,0.73
2023-04-13T03:31:29.488Z,0.80
2023-04-13T03:33:58.509Z,0.80
2023-04-13T03:36:27.574Z,0.90
2023-04-13T03:38:55.656Z,0.97
2023-04-13T03:41:24.027Z,1.50
2023-04-13T03:43:51.038Z,1.10
2023-04-13T03:46:17.796Z,1.05
2023-04-13T03:48:44.722Z,1.50
2023-04-13T03:51:16.272Z,1.60
2023-04-13T03:53:48.497Z,1.40
2023-04-13T03:56:18.617Z,1.50
2023-04-13T03:58:45.517Z,1.92
2023-04-13T04:01:15.184Z,2.03
2023-04-13T04:03:46.243Z,1.50
2023-04-13T04:06:13.507Z,1.80
2023-04-13T04:08:49.508Z,1.63
2023-04-13T04:11:28.413Z,1.80
2023-04-13T04:13:56.078Z,1.80
2023-04-13T04:16:24.504Z,1.70
2023-04-13T04:18:58.535Z,1.92
2023-04-13T04:21:33.775Z,1.50
2023-04-13T04:24:06.410Z,1.70
2023-04-13T04:26:37.955Z,2.05
2023-04-13T04:29:07.068Z,1.83
2023-04-13T04:31:37.312Z,2.10
2023-04-13T04:34:06.673Z,1.63
2023-04-13T04:36:36.347Z,1.67
2023-04-13T04:39:04.624Z,1.70
2023-04-13T04:41:37.971Z,2.13
2023-04-13T04:44:08.998Z,2.25
2023-04-13T04:46:41.561Z,1.90
2023-04-13T04:49:11.222Z,2.20
2023-04-13T04:51:39.190Z,2.78
2023-04-13T04:54:07.311Z,2.47
2023-04-13T04:56:34.118Z,1.67
2023-04-13T04:59:00.770Z,2.47
2023-04-13T05:01:37.059Z,1.50
2023-04-13T05:04:09.792Z,2.10
2023-04-13T05:06:41.480Z,2.03
2023-04-13T05:09:10.940Z,1.67
2023-04-13T05:11:43.577Z,1.60
2023-04-13T05:14:11.728Z,2.25
2023-04-13T05:16:39.172Z,1.88
2023-04-13T05:19:13.734Z,1.53
2023-04-13T05:22:03.285Z,1.45
2023-04-13T05:24:36.279Z,1.35
2023-04-13T05:27:09.783Z,1.35
2023-04-13T05:29:36.435Z,1.40
2023-04-13T05:32:03.691Z,1.00
2023-04-13T05:34:32.680Z,1.20
2023-04-13T05:37:09.579Z,1.08
2023-04-13T05:39:36.295Z,1.20
2023-04-13T05:42:02.821Z,1.50
2023-04-13T05:44:32.597Z,1.53
2023-04-13T05:46:59.276Z,1.35
2023-04-13T05:49:26.604Z,1.20
2023-04-13T05:51:54.725Z,1.73
2023-04-13T05:54:26.812Z,1.33
2023-04-13T05:56:53.437Z,1.47
2023-04-13T05:59:19.950Z,1.27
2023-04-13T06:01:46.871Z,1.27
2023-04-13T06:04:15.825Z,1.08
2023-04-13T06:06:42.445Z,1.45
2023-04-13T06:09:08.889Z,1.60
2023-04-13T06:11:35.715Z,1.40
2023-04-13T06:14:03.110Z,1.50
2023-04-13T06:16:29.663Z,1.60
2023-04-13T06:18:56.725Z,1.50
2023-04-13T06:21:27.671Z,0.90
2023-04-13T06:23:54.196Z,1.05
2023-04-13T06:26:28.956Z,1.52
2023-04-13T06:28:56.885Z,1.55
2023-04-13T06:31:27.526Z,1.48
2023-04-13T06:33:56.728Z,1.60
2023-04-13T06:36:27.959Z,1.40
2023-04-13T06:38:56.472Z,1.20
2023-04-13T06:41:23.036Z,1.42
2023-04-13T06:43:50.856Z,1.63
2023-04-13T06:46:33.536Z,3.03
2023-04-13T06:49:07.459Z,2.72
2023-04-13T06:51:34.907Z,2.47
2023-04-13T06:54:01.540Z,3.20
2023-04-13T06:56:28.094Z,3.47
2023-04-13T06:59:00.798Z,3.67
2023-04-13T07:01:28.903Z,3.80
2023-04-13T07:03:56.531Z,3.05
2023-04-13T07:06:23.654Z,2.50
2023-04-13T07:08:52.228Z,2.53
2023-04-13T07:11:19.138Z,3.20
2023-04-13T07:13:47.273Z,2.65
2023-04-13T07:16:15.131Z,2.60
2023-04-13T07:18:44.701Z,2.88
2023-04-13T07:21:11.633Z,2.70
2023-04-13T07:23:56.142Z,2.40
2023-04-13T07:26:23.321Z,2.47
2023-04-13T07:28:50.369Z,2.38
2023-04-13T07:31:18.059Z,2.65
2023-04-13T07:33:47.774Z,1.80
2023-04-13T07:36:17.637Z,2.20
2023-04-13T07:38:48.486Z,2.05
2023-04-13T07:41:21.982Z,1.45
2023-04-13T07:43:51.457Z,1.75
2023-04-13T07:46:18.048Z,1.40
2023-04-13T07:48:44.848Z,1.20
2023-04-13T07:51:23.117Z,0.80
2023-04-13T07:53:52.516Z,0.70
2023-04-13T07:56:19.689Z,0.50
2023-04-13T07:58:46.625Z,0.40
2023-04-13T08:01:13.098Z,0.50
2023-04-13T08:03:39.772Z,0.50
2023-04-13T08:06:13.620Z,0.93
2023-04-13T08:08:40.494Z,0.95
2023-04-13T08:11:08.646Z,1.27
2023-04-13T08:13:35.836Z,1.47
2023-04-13T08:16:02.720Z,0.70
2023-04-13T08:18:32.070Z,0.60
2023-04-13T08:20:58.951Z,0.70
2023-04-13T08:23:28.403Z,0.60
2023-04-13T08:25:56.932Z,1.00
2023-04-13T08:28:23.432Z,0.70
2023-04-13T08:30:50.024Z,1.00
2023-04-13T08:33:16.779Z,1.05
2023-04-13T08:35:43.380Z,0.77
2023-04-13T08:38:12.538Z,1.30
2023-04-13T08:40:44.115Z,0.70
2023-04-13T08:43:15.145Z,0.60
2023-04-13T08:45:44.814Z,1.35
2023-04-13T08:48:13.915Z,0.55
2023-04-13T08:50:42.569Z,0.80
2023-04-13T08:53:10.198Z,0.60
2023-04-13T08:55:43.469Z,0.60
2023-04-13T08:58:12.295Z,0.95
2023-04-13T09:00:41.985Z,0.60
2023-04-13T09:03:14.135Z,0.60
2023-04-13T09:05:45.694Z,0.57
2023-04-13T09:08:14.112Z,0.63
2023-04-13T09:10:43.931Z,0.70
2023-04-13T09:13:11.129Z,0.75
2023-04-13T09:15:38.822Z,1.23
2023-04-13T09:18:13.623Z,0.90
2023-04-13T09:20:58.968Z,1.00
2023-04-13T09:23:26.174Z,1.30
2023-04-13T09:26:08.739Z,1.25
2023-04-13T09:28:45.993Z,1.53
2023-04-13T09:31:13.610Z,1.13
2023-04-13T09:33:47.756Z,0.90
2023-04-13T09:36:16.581Z,1.52
2023-04-13T09:38:45.779Z,1.13
2023-04-13T09:41:12.295Z,1.00
2023-04-13T09:43:39.775Z,1.48
2023-04-13T09:46:14.185Z,0.93
2023-04-13T09:48:41.122Z,1.08
2023-04-13T09:51:08.656Z,1.17
2023-04-13T09:53:49.192Z,1.00
2023-04-13T09:56:17.095Z,1.00
2023-04-13T09:58:45.434Z,1.08
2023-04-13T10:01:12.714Z,1.58
2023-04-13T10:03:39.372Z,1.15
2023-04-13T10:06:09.728Z,0.80
2023-04-13T10:08:41.953Z,1.00
2023-04-13T10:11:15.598Z,1.50
2023-04-13T10:13:56.892Z,0.75
2023-04-13T10:16:27.148Z,0.95
2023-04-13T10:19:02.529Z,0.90
2023-04-13T10:21:35.461Z,1.10
2023-04-13T10:26:37.722Z,0.77
2023-04-13T10:29:04.812Z,0.63
2023-04-13T10:31:51.400Z,0.90
2023-04-13T10:34:32.026Z,1.02
2023-04-13T10:37:03.047Z,0.82
2023-04-13T10:39:32.214Z,0.65
2023-04-13T10:42:06.475Z,0.80
2023-04-13T10:44:47.497Z,1.00
2023-04-13T10:47:16.095Z,0.95
2023-04-13T10:49:43.958Z,1.25
2023-04-13T10:52:11.587Z,1.50
2023-04-13T10:54:39.789Z,0.70
2023-04-13T10:57:08.980Z,1.10
2023-04-13T10:59:55.572Z,1.52
2023-04-13T11:02:26.117Z,1.05
2023-04-13T11:07:21.832Z,1.10
2023-04-13T11:09:50.494Z,0.97
2023-04-13T11:12:20.210Z,0.93
2023-04-13T11:14:48.076Z,1.30
2023-04-13T11:17:16.659Z,0.95
2023-04-13T11:19:51.225Z,1.25
2023-04-13T11:22:19.515Z,1.30
2023-04-13T11:24:47.478Z,1.25
2023-04-13T11:27:23.068Z,0.82
2023-04-13T11:29:59.850Z,1.10
2023-04-13T11:32:26.755Z,0.68
2023-04-13T11:34:53.210Z,1.17
2023-04-13T11:37:19.768Z,1.02
2023-04-13T11:39:46.452Z,1.17
2023-04-13T11:42:13.460Z,1.23
2023-04-13T11:44:40.083Z,1.42
2023-04-13T11:47:08.734Z,1.00
2023-04-13T11:49:36.021Z,1.20
2023-04-13T11:52:03.258Z,1.73
2023-04-13T11:54:30.369Z,0.85
2023-04-13T11:56:57.541Z,1.00
2023-04-13T11:59:24.871Z,0.87
2023-04-13T12:02:01.581Z,1.05
2023-04-13T12:04:38.333Z,1.10
2023-04-13T12:07:11.474Z,1.40
2023-04-13T12:15:09.975Z,0.80
2023-04-13T12:17:44.001Z,1.13
2023-04-13T12:20:16.854Z,1.10
2023-04-13T12:25:17.831Z,1.37
2023-04-13T12:27:44.804Z,1.20
2023-04-13T12:30:12.869Z,0.95
2023-04-13T12:32:41.898Z,0.80
2023-04-13T12:35:09.127Z,0.90
2023-04-13T12:37:45.861Z,1.67
2023-04-13T12:40:15.587Z,0.68
2023-04-13T12:42:46.557Z,0.90
2023-04-13T12:45:14.083Z,0.80
2023-04-13T12:47:41.590Z,0.80
2023-04-13T12:50:10.516Z,1.13
2023-04-13T12:52:38.482Z,0.80
2023-04-13T12:55:05.611Z,0.68
2023-04-13T12:57:32.634Z,0.70
2023-04-13T12:59:59.341Z,0.70
2023-04-13T13:02:30.986Z,0.70
2023-04-13T13:04:59.061Z,0.55
2023-04-13T13:07:25.628Z,0.75
2023-04-13T13:09:52.336Z,1.00
2023-04-13T13:12:18.953Z,0.98
2023-04-13T13:14:45.390Z,1.07
2023-04-13T13:17:11.904Z,0.60
2023-04-13T13:19:38.443Z,0.95
2023-04-13T13:22:04.944Z,1.00
2023-04-13T13:24:31.853Z,0.60
2023-04-13T13:29:33.106Z,0.90
2023-04-13T13:32:00.419Z,0.82
2023-04-13T13:34:27.181Z,1.25
2023-04-13T13:36:54.041Z,0.80
2023-04-13T13:39:22.169Z,0.67
2023-04-13T13:41:49.012Z,1.20
2023-04-13T13:44:16.349Z,0.80
2023-04-13T13:46:42.913Z,0.80
2023-04-13T13:49:09.870Z,1.05
2023-04-13T13:51:54.303Z,1.00
2023-04-13T13:54:24.160Z,0.70
2023-04-13T13:56:51.348Z,0.63
2023-04-13T13:59:18.306Z,0.50
2023-04-13T14:01:44.900Z,0.77
2023-04-13T14:04:12.478Z,0.77
2023-04-13T14:06:39.031Z,0.70
2023-04-13T14:09:06.500Z,1.23
2023-04-13T14:11:33.297Z,1.38
2023-04-13T14:14:11.143Z,0.80
2023-04-13T14:16:45.545Z,0.87
2023-04-13T14:19:12.362Z,0.70
2023-04-13T14:21:39.040Z,0.70
2023-04-13T14:24:05.954Z,1.05
2023-04-13T14:26:32.501Z,0.85
2023-04-13T14:28:59.090Z,1.10
2023-04-13T14:31:25.812Z,1.55
2023-04-13T14:33:52.351Z,0.90
2023-04-13T14:36:19.198Z,0.80
2023-04-13T14:38:45.702Z,0.68
2023-04-13T14:41:12.201Z,0.80
2023-04-13T14:43:38.829Z,0.70
2023-04-13T14:46:05.572Z,0.90
2023-04-13T14:48:32.807Z,0.70
2023-04-13T14:50:59.963Z,0.45
2023-04-13T14:53:26.515Z,0.60
2023-04-13T14:55:53.012Z,0.57
2023-04-13T14:58:19.516Z,1.88
2023-04-13T15:00:46.025Z,0.80
2023-04-13T15:03:13.125Z,0.57
2023-04-13T15:05:41.621Z,0.40
2023-04-13T15:08:08.581Z,0.93
2023-04-13T15:10:35.182Z,0.77
2023-04-13T15:13:06.438Z,0.52
2023-04-13T15:15:35.135Z,0.38
2023-04-13T15:18:03.049Z,0.37
2023-04-13T15:20:30.566Z,0.40
2023-04-13T15:22:57.829Z,0.40
2023-04-13T15:25:25.322Z,0.50
2023-04-13T15:27:53.099Z,0.30
2023-04-13T15:30:31.183Z,0.50
2023-04-13T15:33:02.197Z,0.75
2023-04-13T15:35:29.365Z,0.50
2023-04-13T15:37:55.955Z,0.60
2023-04-13T15:40:26.811Z,0.52
2023-04-13T15:42:53.541Z,0.97
2023-04-13T15:45:20.977Z,0.40
2023-04-13T15:47:47.517Z,0.60
2023-04-13T15:50:14.176Z,0.50
2023-04-13T15:52:40.808Z,0.60
2023-04-13T15:55:08.135Z,0.73
2023-04-13T15:57:35.442Z,0.60
2023-04-13T16:00:04.375Z,0.40
2023-04-13T16:02:32.284Z,0.77
2023-04-13T16:04:59.058Z,0.75
2023-04-13T16:07:25.705Z,0.30
2023-04-13T16:09:58.446Z,0.73
2023-04-13T16:12:31.926Z,0.45
2023-04-13T16:15:07.843Z,0.75
2023-04-13T16:17:34.772Z,0.55
2023-04-13T16:20:17.450Z,0.70
2023-04-13T16:22:49.125Z,0.55
2023-04-13T16:25:17.941Z,0.60
2023-04-13T16:27:45.935Z,0.50
2023-04-13T16:30:13.330Z,0.45
2023-04-13T16:32:46.738Z,0.60
2023-04-13T16:35:13.528Z,0.38
2023-04-13T16:37:43.587Z,0.40
2023-04-13T16:40:11.179Z,0.50
2023-04-13T16:42:39.074Z,0.55
2023-04-13T16:45:07.458Z,0.47
2023-04-13T16:47:34.148Z,0.55
2023-04-13T16:50:00.801Z,0.70
2023-04-13T16:52:27.287Z,0.63
2023-04-13T16:54:54.024Z,0.63
2023-04-13T16:57:20.622Z,0.40
2023-04-13T16:59:47.181Z,0.38
2023-04-13T17:02:28.367Z,0.65
2023-04-13T17:04:57.430Z,0.70
2023-04-13T17:07:26.642Z,0.60
2023-04-13T17:09:53.181Z,0.50
2023-04-13T17:12:19.729Z,0.60
2023-04-13T17:14:46.599Z,0.50
2023-04-13T17:17:13.164Z,0.68
2023-04-13T17:19:39.767Z,1.05
2023-04-13T17:22:06.600Z,0.40
2023-04-13T17:24:33.601Z,0.40
2023-04-13T17:27:00.124Z,0.40
2023-04-13T17:29:26.905Z,0.70
2023-04-13T17:31:53.473Z,0.70
2023-04-13T17:34:20.109Z,0.50
2023-04-13T17:36:46.727Z,0.40
2023-04-13T17:39:13.329Z,0.40
2023-04-13T17:41:41.624Z,0.30
2023-04-13T17:44:08.153Z,0.88
2023-04-13T17:46:34.595Z,0.60
2023-04-13T17:49:01.854Z,0.70
2023-04-13T17:51:29.881Z,0.85
2023-04-13T17:53:56.638Z,0.50
2023-04-13T17:56:23.136Z,0.57
2023-04-13T17:58:49.558Z,0.30
2023-04-13T18:01:16.195Z,0.40
2023-04-13T18:03:43.091Z,0.60
2023-04-13T18:06:10.256Z,0.40
2023-04-13T18:08:36.808Z,0.50
2023-04-13T18:11:03.288Z,0.47
2023-04-13T18:13:31.475Z,0.40
2023-04-13T18:15:58.240Z,0.63
2023-04-13T18:18:25.096Z,0.57
2023-04-13T18:20:52.569Z,0.52
2023-04-13T18:23:19.973Z,0.40
2023-04-13T18:25:51.044Z,0.43
2023-04-13T18:28:17.743Z,0.40
2023-04-13T18:30:45.156Z,0.50
2023-04-13T18:33:12.520Z,0.68
2023-04-13T18:35:43.780Z,0.50
2023-04-13T18:38:10.507Z,0.60
2023-04-13T18:40:37.252Z,1.23
2023-04-13T18:43:03.730Z,1.00
2023-04-13T18:45:30.559Z,0.75
2023-04-13T18:47:57.107Z,0.77
2023-04-13T18:50:23.637Z,0.90
2023-04-13T18:52:50.127Z,0.55
2023-04-13T18:55:16.758Z,0.80
2023-04-13T18:57:43.324Z,0.77
2023-04-13T19:00:13.420Z,0.83
2023-04-13T19:02:46.391Z,0.95
2023-04-13T19:05:13.607Z,0.80
2023-04-13T19:07:40.362Z,0.82
2023-04-13T19:10:07.150Z,1.05
2023-04-13T19:12:34.702Z,1.63
2023-04-13T19:15:01.561Z,1.70
2023-04-13T19:17:28.181Z,1.25
2023-04-13T19:19:55.557Z,1.10
2023-04-13T19:22:22.443Z,1.90
2023-04-13T19:24:49.332Z,1.50
2023-04-13T19:27:15.847Z,1.30
2023-04-13T19:29:42.353Z,1.40
2023-04-13T19:32:11.912Z,1.30
2023-04-13T19:34:38.552Z,1.25
2023-04-13T19:37:05.236Z,1.67
2023-04-13T19:39:32.086Z,1.30
2023-04-13T19:41:58.643Z,1.50
2023-04-13T19:44:25.969Z,1.20
2023-04-13T19:46:52.466Z,1.48
2023-04-13T19:49:18.947Z,0.87
2023-04-13T19:51:46.342Z,1.30
2023-04-13T19:54:13.508Z,1.13
2023-04-13T19:56:39.981Z,1.38
2023-04-13T19:59:06.626Z,1.65
2023-04-13T20:01:33.670Z,2.27
2023-04-13T20:04:02.114Z,2.35
2023-04-13T20:06:29.172Z,2.47
2023-04-13T20:09:06.799Z,2.53
2023-04-13T20:11:34.654Z,2.83
2023-04-13T20:14:01.458Z,2.63
2023-04-13T20:16:28.185Z,2.70
2023-04-13T20:18:54.665Z,2.75
2023-04-13T20:21:21.452Z,2.08
2023-04-13T20:23:47.918Z,2.63
2023-04-13T20:26:14.414Z,2.30
2023-04-13T20:28:40.883Z,3.25
2023-04-13T20:31:08.306Z,3.25
2023-04-13T20:33:34.874Z,2.88
2023-04-13T20:36:01.586Z,2.58
2023-04-13T20:38:29.941Z,2.27
2023-04-13T20:40:57.165Z,2.17
2023-04-13T20:43:24.173Z,2.22
2023-04-13T20:45:51.492Z,2.63
2023-04-13T20:50:47.854Z,2.40
2023-04-13T20:53:16.483Z,2.20
2023-04-13T20:55:43.078Z,1.40
2023-04-13T20:58:10.650Z,1.55
2023-04-13T21:00:37.201Z,1.30
2023-04-13T21:03:04.240Z,1.57
2023-04-13T21:05:31.066Z,0.85
2023-04-13T21:07:57.590Z,1.15
2023-04-13T21:10:24.160Z,1.15
2023-04-13T21:12:50.711Z,0.93
2023-04-13T21:15:17.200Z,1.30
2023-04-13T21:17:43.825Z,0.60
2023-04-13T21:20:11.125Z,0.90
2023-04-13T21:22:37.686Z,0.85
2023-04-13T21:25:05.322Z,0.70
2023-04-13T21:27:32.268Z,1.27
2023-04-13T21:29:59.435Z,1.10
2023-04-13T21:32:26.148Z,0.70
2023-04-13T21:34:54.913Z,1.05
2023-04-13T21:37:21.828Z,1.05
2023-04-13T21:39:48.332Z,1.03
2023-04-13T21:42:16.780Z,0.90
2023-04-13T21:44:43.295Z,0.80
2023-04-13T21:47:09.804Z,1.10
2023-04-13T21:49:36.359Z,0.85
2023-04-13T21:52:02.805Z,0.87
2023-04-13T21:54:29.331Z,0.70
2023-04-13T21:56:55.816Z,0.50
2023-04-13T21:59:27.062Z,0.80
2023-04-13T22:01:54.535Z,0.70
2023-04-13T22:04:21.136Z,1.03
2023-04-13T22:06:47.829Z,1.25
2023-04-13T22:09:14.326Z,0.57
2023-04-13T22:11:41.031Z,0.40
2023-04-13T22:14:07.566Z,0.55
2023-04-13T22:16:34.089Z,0.50
2023-04-13T22:19:00.721Z,0.63
2023-04-13T22:21:27.687Z,0.70
2023-04-13T22:23:54.300Z,0.70
2023-04-13T22:26:20.911Z,0.50
2023-04-13T22:28:47.372Z,0.60
2023-04-13T22:31:14.037Z,0.95
2023-04-13T22:33:40.843Z,0.60
2023-04-13T22:36:17.426Z,1.65
2023-04-13T22:38:44.593Z,0.55
2023-04-13T22:41:12.523Z,1.07
2023-04-13T22:43:39.853Z,0.73
2023-04-13T22:46:06.398Z,0.80
2023-04-13T22:48:32.892Z,0.50
2023-04-13T22:51:03.638Z,0.70
2023-04-13T22:53:30.470Z,0.63
2023-04-13T22:55:57.165Z,0.57
2023-04-13T22:58:23.756Z,0.45
2023-04-13T23:00:50.322Z,0.60
2023-04-13T23:03:17.258Z,0.80
2023-04-13T23:05:43.771Z,0.50
2023-04-13T23:08:10.490Z,1.00
2023-04-13T23:10:37.297Z,0.60
2023-04-13T23:13:04.665Z,0.50
2023-04-13T23:15:31.155Z,0.60
2023-04-13T23:17:57.662Z,0.53
2023-04-13T23:20:24.222Z,0.70
2023-04-13T23:22:50.714Z,0.82
2023-04-13T23:25:17.349Z,1.10
2023-04-13T23:27:43.999Z,1.00
2023-04-13T23:30:11.149Z,0.90
2023-04-13T23:32:37.658Z,1.00
2023-04-13T23:35:04.855Z,1.30
2023-04-13T23:37:31.329Z,0.88
2023-04-13T23:39:57.816Z,0.93
2023-04-13T23:42:24.249Z,0.97
2023-04-13T23:44:50.875Z,0.90
2023-04-13T23:47:17.496Z,0.90
2023-04-13T23:49:46.399Z,1.00
2023-04-13T23:52:13.252Z,1.17
2023-04-13T23:54:39.693Z,1.10
2023-04-13T23:57:06.492Z,1.10
2023-04-13T23:59:33.002Z,1.02
